createdAt,value
2022-11-13T00:01:09.433Z,98258.31
2022-11-13T00:03:37.595Z,98239.50
2022-11-13T00:06:06.252Z,98238.25
2022-11-13T00:08:34.500Z,98231.75
2022-11-13T00:11:03.799Z,98232.47
2022-11-13T00:13:32.179Z,98225.38
2022-11-13T00:16:03.382Z,98221.81
2022-11-13T00:18:32.539Z,98223.78
2022-11-13T00:21:06.470Z,98226.84
2022-11-13T00:23:35.472Z,98222.25
2022-11-13T00:26:08.124Z,98221.50
2022-11-13T00:28:36.564Z,98218.16
2022-11-13T00:31:08.210Z,98221.78
2022-11-13T00:34:05.391Z,98214.47
2022-11-13T00:36:26.889Z,98218.25
2022-11-13T00:38:55.573Z,98217.00
2022-11-13T00:41:24.252Z,98216.06
2022-11-13T00:43:52.604Z,98212.59
2022-11-13T00:46:22.189Z,98219.81
2022-11-13T00:48:50.543Z,98216.97
2022-11-13T00:51:19.815Z,98214.88
2022-11-13T00:53:47.993Z,98207.69
2022-11-13T00:56:16.191Z,98199.06
2022-11-13T00:58:44.288Z,98201.25
2022-11-13T01:01:14.037Z,98200.09
2022-11-13T01:03:44.130Z,98205.72
2022-11-13T01:06:14.219Z,98202.09
2022-11-13T01:08:42.370Z,98196.44
2022-11-13T01:11:12.429Z,98196.88
2022-11-13T01:13:40.814Z,98190.75
2022-11-13T01:16:10.813Z,98192.44
2022-11-13T01:18:39.040Z,98186.34
2022-11-13T01:21:11.851Z,98187.09
2022-11-13T01:23:40.329Z,98178.22
2022-11-13T01:26:10.849Z,98168.63
2022-11-13T01:28:39.207Z,98169.22
2022-11-13T01:31:08.090Z,98154.16
2022-11-13T01:33:36.503Z,98151.63
2022-11-13T01:36:07.359Z,98158.44
2022-11-13T01:38:37.529Z,98143.06
2022-11-13T01:41:07.089Z,98159.13
2022-11-13T01:43:37.492Z,98153.47
2022-11-13T01:46:14.959Z,98147.81
2022-11-13T01:48:46.058Z,98141.28
2022-11-13T01:51:16.070Z,98150.25
2022-11-13T01:53:47.511Z,98143.91
2022-11-13T01:56:16.412Z,98135.66
2022-11-13T01:58:47.168Z,98132.41
2022-11-13T02:01:15.566Z,98135.19
2022-11-13T02:03:44.606Z,98128.41
2022-11-13T02:06:12.782Z,98124.81
2022-11-13T02:08:41.248Z,98119.78
2022-11-13T02:11:10.949Z,98119.22
2022-11-13T02:13:39.089Z,98114.13
2022-11-13T02:16:09.831Z,98110.00
2022-11-13T02:18:38.793Z,98105.44
2022-11-13T02:21:14.890Z,98097.47
2022-11-13T02:23:47.441Z,98084.28
2022-11-13T02:26:17.769Z,98094.31
2022-11-13T02:28:46.351Z,98088.72
2022-11-13T02:31:15.730Z,98091.03
2022-11-13T02:33:43.950Z,98082.69
2022-11-13T02:36:15.998Z,98081.16
2022-11-13T02:39:40.278Z,98078.63
2022-11-13T02:42:10.053Z,98081.78
2022-11-13T02:44:38.473Z,98073.97
2022-11-13T02:47:06.771Z,98071.34
2022-11-13T02:49:35.134Z,98085.47
2022-11-13T02:52:03.570Z,98078.75
2022-11-13T02:54:31.943Z,98077.09
2022-11-13T02:57:00.283Z,98069.28
2022-11-13T02:59:29.935Z,98065.66
2022-11-13T03:01:58.264Z,98058.97
2022-11-13T03:04:38.401Z,98055.16
2022-11-13T03:07:15.196Z,98059.16
2022-11-13T03:09:43.471Z,98059.81
2022-11-13T03:12:12.065Z,98055.63
2022-11-13T03:14:41.775Z,98057.22
2022-11-13T03:17:10.301Z,98052.75
2022-11-13T03:19:38.598Z,98043.44
2022-11-13T03:22:07.202Z,98042.72
2022-11-13T03:24:35.599Z,98042.53
2022-11-13T03:27:03.989Z,98042.44
2022-11-13T03:29:32.467Z,98045.97
2022-11-13T03:32:03.339Z,98046.81
2022-11-13T03:34:31.472Z,98044.38
2022-11-13T03:36:59.608Z,98048.47
2022-11-13T03:39:27.778Z,98046.16
2022-11-13T03:41:55.968Z,98038.44
2022-11-13T03:44:24.079Z,98037.63
2022-11-13T03:46:52.299Z,98037.22
2022-11-13T03:49:22.111Z,98028.66
2022-11-13T03:51:50.239Z,98032.88
2022-11-13T03:54:18.588Z,98029.34
2022-11-13T03:56:46.776Z,98028.88
2022-11-13T03:59:14.869Z,98018.44
2022-11-13T04:01:43.094Z,98022.81
2022-11-13T04:04:11.321Z,98024.47
2022-11-13T04:06:40.914Z,98024.31
2022-11-13T04:09:09.900Z,98015.19
2022-11-13T04:11:38.159Z,98007.91
2022-11-13T04:14:06.336Z,98005.50
2022-11-13T04:16:34.448Z,98004.56
2022-11-13T04:19:02.606Z,97992.13
2022-11-13T04:21:30.748Z,97997.66
2022-11-13T04:24:00.308Z,97991.75
2022-11-13T04:26:28.557Z,97987.38
2022-11-13T04:28:56.641Z,97993.06
2022-11-13T04:31:24.792Z,97977.16
2022-11-13T04:33:52.959Z,97982.19
2022-11-13T04:36:21.231Z,97976.81
2022-11-13T04:38:49.328Z,97986.09
2022-11-13T04:41:36.877Z,97977.09
2022-11-13T04:44:05.018Z,97977.38
2022-11-13T04:46:33.147Z,97973.94
2022-11-13T04:49:01.350Z,97973.09
2022-11-13T04:51:29.488Z,97974.50
2022-11-13T04:53:57.747Z,97970.41
2022-11-13T04:56:27.312Z,97968.00
2022-11-13T04:58:55.528Z,97962.72
2022-11-13T05:01:24.133Z,97966.22
2022-11-13T05:03:52.291Z,97959.63
2022-11-13T05:06:20.390Z,97962.44
2022-11-13T05:08:48.745Z,97957.50
2022-11-13T05:11:16.931Z,97953.88
2022-11-13T05:13:46.687Z,97959.72
2022-11-13T05:16:16.136Z,97952.56
2022-11-13T05:18:44.218Z,97950.78
2022-11-13T05:21:12.866Z,97949.31
2022-11-13T05:23:41.047Z,97944.66
2022-11-13T05:26:13.705Z,97949.22
2022-11-13T05:28:42.185Z,97953.31
2022-11-13T05:31:13.118Z,97947.44
2022-11-13T05:33:43.186Z,97948.09
2022-11-13T05:36:14.898Z,97944.50
2022-11-13T05:38:43.756Z,97934.94
2022-11-13T05:41:14.683Z,97945.16
2022-11-13T05:43:43.646Z,97947.47
2022-11-13T05:46:14.587Z,97933.59
2022-11-13T05:48:43.258Z,97930.66
2022-11-13T05:51:13.166Z,97926.38
2022-11-13T05:53:42.106Z,97922.84
2022-11-13T05:56:13.656Z,97915.97
2022-11-13T05:58:44.016Z,97921.53
2022-11-13T06:01:15.340Z,97924.50
2022-11-13T06:03:43.870Z,97922.81
2022-11-13T06:06:13.889Z,97915.03
2022-11-13T06:08:42.576Z,97916.44
2022-11-13T06:11:12.988Z,97918.38
2022-11-13T06:13:41.621Z,97916.34
2022-11-13T06:16:11.710Z,97906.19
2022-11-13T06:18:42.817Z,97918.75
2022-11-13T06:21:13.267Z,97905.84
2022-11-13T06:23:41.809Z,97902.50
2022-11-13T06:26:12.964Z,97908.53
2022-11-13T06:28:41.347Z,97915.22
2022-11-13T06:31:12.091Z,97911.69
2022-11-13T06:33:42.974Z,97911.78
2022-11-13T06:36:13.649Z,97911.13
2022-11-13T06:38:42.597Z,97906.66
2022-11-13T06:41:12.306Z,97906.56
2022-11-13T06:43:40.703Z,97910.78
2022-11-13T06:46:12.155Z,97900.72
2022-11-13T06:48:41.867Z,97910.19
2022-11-13T06:51:13.767Z,97900.34
2022-11-13T06:53:41.889Z,97905.38
2022-11-13T06:56:10.211Z,97889.50
2022-11-13T06:58:38.601Z,97903.69
2022-11-13T07:01:08.030Z,97909.81
2022-11-13T07:03:36.466Z,97908.25
2022-11-13T07:06:07.998Z,97892.00
2022-11-13T07:08:37.839Z,97886.97
2022-11-13T07:11:07.846Z,97870.72
2022-11-13T07:13:36.137Z,97881.09
2022-11-13T07:16:15.831Z,97884.75
2022-11-13T07:18:45.690Z,97876.75
2022-11-13T07:21:15.187Z,97864.38
2022-11-13T07:23:43.804Z,97857.09
2022-11-13T07:26:12.549Z,97862.03
2022-11-13T07:28:40.739Z,97866.03
2022-11-13T07:31:09.030Z,97851.59
2022-11-13T07:33:37.206Z,97844.34
2022-11-13T07:36:06.128Z,97847.88
2022-11-13T07:38:36.043Z,97847.56
2022-11-13T07:41:04.641Z,97841.75
2022-11-13T07:43:32.918Z,97845.09
2022-11-13T07:46:01.458Z,97842.09
2022-11-13T07:48:30.351Z,97837.22
2022-11-13T07:51:01.792Z,97823.06
2022-11-13T07:53:30.561Z,97812.56
2022-11-13T07:56:03.275Z,97805.16
2022-11-13T07:58:31.859Z,97806.34
2022-11-13T08:01:04.358Z,97822.19
2022-11-13T08:03:33.168Z,97816.50
2022-11-13T08:06:02.647Z,97806.91
2022-11-13T08:08:31.150Z,97797.72
2022-11-13T08:10:59.548Z,97807.50
2022-11-13T08:13:29.119Z,97800.97
2022-11-13T08:16:00.600Z,97815.34
2022-11-13T08:18:29.118Z,97803.78
2022-11-13T08:20:57.749Z,97793.97
2022-11-13T08:23:26.082Z,97803.16
2022-11-13T08:25:54.640Z,97793.03
2022-11-13T08:28:22.778Z,97795.94
2022-11-13T08:30:52.839Z,97786.75
2022-11-13T08:33:20.983Z,97783.78
2022-11-13T08:35:56.178Z,97782.69
2022-11-13T08:38:24.789Z,97783.63
2022-11-13T08:40:53.078Z,97772.19
2022-11-13T08:43:21.227Z,97774.41
2022-11-13T08:45:49.592Z,97778.19
2022-11-13T08:48:19.996Z,97771.84
2022-11-13T08:50:48.161Z,97778.53
2022-11-13T08:53:16.356Z,97778.91
2022-11-13T08:55:44.580Z,97785.97
2022-11-13T08:58:12.849Z,97783.72
2022-11-13T09:00:41.079Z,97793.47
2022-11-13T09:03:13.118Z,97791.31
2022-11-13T09:05:42.621Z,97791.88
2022-11-13T09:08:10.948Z,97796.16
2022-11-13T09:10:39.049Z,97781.09
2022-11-13T09:13:08.910Z,97779.28
2022-11-13T09:15:40.128Z,97795.88
2022-11-13T09:18:08.239Z,97802.06
2022-11-13T09:20:36.639Z,97799.84
2022-11-13T09:23:09.366Z,97806.19
2022-11-13T09:25:38.427Z,97809.59
2022-11-13T09:28:07.491Z,97815.16
2022-11-13T09:30:36.838Z,97812.53
2022-11-13T09:33:05.073Z,97816.81
2022-11-13T09:35:36.851Z,97817.56
2022-11-13T09:38:11.414Z,97813.38
2022-11-13T09:40:44.194Z,97808.72
2022-11-13T09:43:27.462Z,97785.53
2022-11-13T09:46:00.300Z,97793.44
2022-11-13T09:48:32.551Z,97772.66
2022-11-13T09:51:03.648Z,97782.66
2022-11-13T09:53:36.672Z,97785.28
2022-11-13T09:56:14.948Z,97782.38
2022-11-13T09:58:48.721Z,97793.44
2022-11-13T10:01:25.459Z,97798.44
2022-11-13T10:04:03.945Z,97786.16
2022-11-13T10:06:41.887Z,97777.59
2022-11-13T10:09:22.700Z,97769.16
2022-11-13T10:11:55.841Z,97766.38
2022-11-13T10:14:26.910Z,97765.66
2022-11-13T10:16:58.819Z,97752.81
2022-11-13T10:19:30.848Z,97747.00
2022-11-13T10:22:26.400Z,97749.59
2022-11-13T10:24:53.279Z,97748.19
2022-11-13T10:27:21.808Z,97737.84
2022-11-13T10:29:49.952Z,97729.03
2022-11-13T10:32:20.219Z,97717.06
2022-11-13T10:34:52.439Z,97716.69
2022-11-13T10:37:41.121Z,97721.38
2022-11-13T10:40:10.911Z,97716.34
2022-11-13T10:42:40.649Z,97699.84
2022-11-13T10:45:16.007Z,97696.91
2022-11-13T10:48:03.677Z,97692.63
2022-11-13T10:50:33.760Z,97685.25
2022-11-13T10:53:01.963Z,97677.41
2022-11-13T10:55:39.682Z,97661.56
2022-11-13T10:58:14.755Z,97660.66
2022-11-13T11:00:44.959Z,97653.41
2022-11-13T11:03:17.669Z,97644.63
2022-11-13T11:05:56.312Z,97625.72
2022-11-13T11:08:28.276Z,97628.63
2022-11-13T11:11:17.530Z,97624.88
2022-11-13T11:13:46.014Z,97604.81
2022-11-13T11:16:18.748Z,97619.47
2022-11-13T11:18:53.639Z,97613.16
2022-11-13T11:21:24.036Z,97616.63
2022-11-13T11:23:57.572Z,97611.72
2022-11-13T11:26:31.886Z,97608.59
2022-11-13T11:29:08.461Z,97606.50
2022-11-13T11:31:39.456Z,97589.59
2022-11-13T11:34:17.039Z,97587.78
2022-11-13T11:36:51.411Z,97585.06
2022-11-13T11:39:29.379Z,97586.94
2022-11-13T11:42:12.099Z,97585.00
2022-11-13T11:44:49.917Z,97574.63
2022-11-13T11:47:19.290Z,97573.09
2022-11-13T11:49:47.648Z,97576.94
2022-11-13T11:52:32.999Z,97573.13
2022-11-13T11:55:09.630Z,97576.66
2022-11-13T11:57:47.778Z,97556.06
2022-11-13T12:00:18.708Z,97559.91
2022-11-13T12:03:10.041Z,97553.56
2022-11-13T12:05:46.661Z,97550.13
2022-11-13T12:08:22.328Z,97537.25
2022-11-13T12:10:56.838Z,97540.06
2022-11-13T12:13:30.460Z,97543.31
2022-11-13T12:16:03.696Z,97534.72
2022-11-13T12:18:38.685Z,97527.00
2022-11-13T12:21:23.722Z,97518.31
2022-11-13T12:24:03.592Z,97517.47
2022-11-13T12:26:36.956Z,97520.59
2022-11-13T12:29:15.970Z,97507.69
2022-11-13T12:31:53.545Z,97503.59
2022-11-13T12:34:27.403Z,97503.78
2022-11-13T12:36:56.338Z,97507.91
2022-11-13T12:39:34.459Z,97508.78
2022-11-13T12:42:06.289Z,97507.47
2022-11-13T12:44:41.748Z,97504.34
2022-11-13T12:47:10.378Z,97496.34
2022-11-13T12:49:39.059Z,97504.28
2022-11-13T12:52:20.144Z,97501.97
2022-11-13T12:54:48.311Z,97495.44
2022-11-13T12:57:27.259Z,97500.22
2022-11-13T13:00:11.658Z,97499.06
2022-11-13T13:02:52.899Z,97493.13
2022-11-13T13:05:26.042Z,97490.47
2022-11-13T13:08:14.139Z,97489.16
2022-11-13T13:10:52.505Z,97491.66
2022-11-13T13:13:26.840Z,97484.88
2022-11-13T13:15:59.181Z,97483.50
2022-11-13T13:18:29.956Z,97485.53
2022-11-13T13:21:06.365Z,97486.44
2022-11-13T13:23:36.367Z,97484.66
2022-11-13T13:26:16.088Z,97477.22
2022-11-13T13:28:46.128Z,97478.16
2022-11-13T13:31:31.328Z,97475.03
2022-11-13T13:34:09.538Z,97471.19
2022-11-13T13:36:41.120Z,97469.72
2022-11-13T13:39:20.879Z,97468.88
2022-11-13T13:42:00.427Z,97460.13
2022-11-13T13:44:40.278Z,97463.38
2022-11-13T13:47:15.990Z,97465.00
2022-11-13T13:49:44.797Z,97453.25
2022-11-13T13:52:14.267Z,97456.06
2022-11-13T13:54:43.310Z,97459.13
2022-11-13T13:57:14.606Z,97457.78
2022-11-13T13:59:43.557Z,97446.50
2022-11-13T14:02:18.189Z,97451.59
2022-11-13T14:04:47.458Z,97458.44
2022-11-13T14:07:24.769Z,97450.84
2022-11-13T14:10:06.380Z,97449.31
2022-11-13T14:12:34.687Z,97446.13
2022-11-13T14:15:06.175Z,97447.53
2022-11-13T14:17:35.748Z,97439.41
2022-11-13T14:20:03.907Z,97444.81
2022-11-13T14:22:32.091Z,97448.56
2022-11-13T14:25:01.468Z,97453.00
2022-11-13T14:27:31.276Z,97467.44
2022-11-13T14:30:01.436Z,97464.72
2022-11-13T14:32:31.412Z,97463.31
2022-11-13T14:35:03.227Z,97457.00
2022-11-13T14:37:34.778Z,97446.41
2022-11-13T14:40:06.224Z,97464.06
2022-11-13T14:42:37.839Z,97460.38
2022-11-13T14:45:17.190Z,97462.31
2022-11-13T14:47:57.843Z,97453.78
2022-11-13T14:50:29.236Z,97454.91
2022-11-13T14:53:01.611Z,97457.28
2022-11-13T14:55:31.298Z,97451.94
2022-11-13T14:57:59.528Z,97452.59
2022-11-13T15:00:30.378Z,97437.41
2022-11-13T15:02:59.015Z,97440.88
2022-11-13T15:05:29.154Z,97451.06
2022-11-13T15:07:57.898Z,97446.50
2022-11-13T15:10:27.996Z,97444.75
2022-11-13T15:12:56.438Z,97446.72
2022-11-13T15:15:27.501Z,97437.19
2022-11-13T15:17:55.718Z,97433.91
2022-11-13T15:20:26.598Z,97439.16
2022-11-13T15:22:57.168Z,97437.53
2022-11-13T15:25:26.858Z,97437.13
2022-11-13T15:27:55.728Z,97443.19
2022-11-13T15:30:24.068Z,97437.81
2022-11-13T15:32:54.247Z,97437.78
2022-11-13T15:35:22.568Z,97440.44
2022-11-13T15:37:50.722Z,97440.97
2022-11-13T15:40:20.469Z,97456.41
2022-11-13T15:42:48.760Z,97456.38
2022-11-13T15:45:17.776Z,97460.50
2022-11-13T15:47:46.119Z,97458.44
2022-11-13T15:50:15.598Z,97466.13
2022-11-13T15:52:46.946Z,97462.78
2022-11-13T15:55:22.618Z,97469.50
2022-11-13T15:57:50.941Z,97466.69
2022-11-13T16:00:21.545Z,97470.81
2022-11-13T16:02:51.978Z,97461.94
2022-11-13T16:05:20.125Z,97465.91
2022-11-13T16:07:48.564Z,97457.03
2022-11-13T16:10:17.638Z,97460.56
2022-11-13T16:12:47.148Z,97450.16
2022-11-13T16:15:17.136Z,97455.91
2022-11-13T16:17:48.288Z,97456.03
2022-11-13T16:20:18.319Z,97459.88
2022-11-13T16:22:47.518Z,97465.34
2022-11-13T16:25:17.807Z,97460.38
2022-11-13T16:27:48.090Z,97464.19
2022-11-13T16:30:17.454Z,97458.53
2022-11-13T16:32:45.862Z,97455.22
2022-11-13T16:35:15.805Z,97460.91
2022-11-13T16:37:44.444Z,97445.38
2022-11-13T16:40:21.798Z,97465.59
2022-11-13T16:42:51.869Z,97459.06
2022-11-13T16:45:20.994Z,97459.47
2022-11-13T16:47:50.848Z,97461.38
2022-11-13T16:50:22.190Z,97456.50
2022-11-13T16:52:52.154Z,97460.19
2022-11-13T16:55:20.626Z,97458.53
2022-11-13T16:57:50.285Z,97454.00
2022-11-13T17:00:20.641Z,97461.03
2022-11-13T17:02:52.677Z,97447.81
2022-11-13T17:05:22.108Z,97455.78
2022-11-13T17:07:52.051Z,97451.31
2022-11-13T17:10:31.324Z,97440.88
2022-11-13T17:13:01.402Z,97448.22
2022-11-13T17:15:29.804Z,97442.53
2022-11-13T17:17:58.727Z,97441.59
2022-11-13T17:20:27.141Z,97439.66
2022-11-13T17:22:56.154Z,97443.00
2022-11-13T17:25:26.987Z,97437.44
2022-11-13T17:27:55.557Z,97439.59
2022-11-13T17:30:25.339Z,97441.03
2022-11-13T17:32:54.071Z,97429.16
2022-11-13T17:35:22.180Z,97436.44
2022-11-13T17:37:50.385Z,97440.97
2022-11-13T17:40:18.646Z,97432.88
2022-11-13T17:42:48.202Z,97434.88
2022-11-13T17:45:16.716Z,97422.28
2022-11-13T17:47:46.286Z,97426.94
2022-11-13T17:50:15.253Z,97413.63
2022-11-13T17:52:43.459Z,97418.25
2022-11-13T17:55:14.266Z,97430.03
2022-11-13T17:57:42.445Z,97428.38
2022-11-13T18:00:11.933Z,97426.47
2022-11-13T18:02:40.318Z,97427.09
2022-11-13T18:05:10.856Z,97426.63
2022-11-13T18:07:40.329Z,97422.69
2022-11-13T18:10:11.089Z,97426.03
2022-11-13T18:12:39.296Z,97420.78
2022-11-13T18:15:08.220Z,97422.91
2022-11-13T18:17:36.326Z,97418.53
2022-11-13T18:20:04.745Z,97416.97
2022-11-13T18:22:34.411Z,97413.31
2022-11-13T18:25:03.475Z,97407.69
2022-11-13T18:27:31.757Z,97407.00
2022-11-13T18:29:59.848Z,97410.81
2022-11-13T18:32:28.550Z,97411.50
2022-11-13T18:34:56.659Z,97410.00
2022-11-13T18:37:24.962Z,97406.06
2022-11-13T18:39:54.647Z,97408.47
2022-11-13T18:42:22.956Z,97401.00
2022-11-13T18:44:51.131Z,97397.53
2022-11-13T18:47:19.899Z,97396.81
2022-11-13T18:49:48.152Z,97388.28
2022-11-13T18:52:16.549Z,97393.16
2022-11-13T18:54:44.680Z,97393.47
2022-11-13T18:57:15.038Z,97393.63
2022-11-13T18:59:43.200Z,97389.59
2022-11-13T19:02:13.171Z,97385.88
2022-11-13T19:04:41.911Z,97387.44
2022-11-13T19:07:12.616Z,97377.59
2022-11-13T19:09:45.237Z,97389.09
2022-11-13T19:12:14.819Z,97375.47
2022-11-13T19:14:44.038Z,97378.53
2022-11-13T19:17:12.580Z,97377.25
2022-11-13T19:19:42.400Z,97371.91
2022-11-13T19:22:10.909Z,97375.25
2022-11-13T19:24:39.055Z,97378.81
2022-11-13T19:27:07.359Z,97381.19
2022-11-13T19:29:36.898Z,97377.63
2022-11-13T19:32:05.968Z,97372.19
2022-11-13T19:34:34.065Z,97380.13
2022-11-13T19:37:02.306Z,97372.78
2022-11-13T19:39:30.441Z,97371.22
2022-11-13T19:41:58.678Z,97373.00
2022-11-13T19:44:27.498Z,97364.81
2022-11-13T19:46:57.449Z,97370.88
2022-11-13T19:49:26.992Z,97377.88
2022-11-13T19:51:55.172Z,97377.28
2022-11-13T19:54:23.337Z,97371.38
2022-11-13T19:56:51.911Z,97372.06
2022-11-13T19:59:20.066Z,97366.72
2022-11-13T20:01:48.169Z,97368.41
2022-11-13T20:04:17.872Z,97366.97
2022-11-13T20:06:46.038Z,97367.91
2022-11-13T20:09:14.194Z,97373.50
2022-11-13T20:11:42.379Z,97374.78
2022-11-13T20:14:11.842Z,97370.03
2022-11-13T20:16:39.989Z,97377.97
2022-11-13T20:19:08.207Z,97374.91
2022-11-13T20:21:37.778Z,97369.47
2022-11-13T20:24:06.199Z,97364.25
2022-11-13T20:26:34.399Z,97359.59
2022-11-13T20:29:02.579Z,97373.25
2022-11-13T20:31:30.688Z,97363.03
2022-11-13T20:33:59.508Z,97356.97
2022-11-13T20:36:27.620Z,97354.63
2022-11-13T20:38:58.158Z,97358.41
2022-11-13T20:41:26.724Z,97354.50
2022-11-13T20:43:56.442Z,97347.59
2022-11-13T20:46:25.417Z,97350.22
2022-11-13T20:48:53.578Z,97345.56
2022-11-13T20:51:24.337Z,97347.50
2022-11-13T20:53:52.980Z,97343.75
2022-11-13T20:56:23.929Z,97346.88
2022-11-13T20:58:52.040Z,97325.78
2022-11-13T21:01:22.179Z,97334.91
2022-11-13T21:03:50.720Z,97333.47
2022-11-13T21:06:20.560Z,97330.34
2022-11-13T21:08:48.928Z,97336.94
2022-11-13T21:11:19.638Z,97336.00
2022-11-13T21:13:49.360Z,97344.91
2022-11-13T21:16:18.299Z,97333.78
2022-11-13T21:18:46.713Z,97329.19
2022-11-13T21:21:16.397Z,97319.78
2022-11-13T21:23:44.482Z,97328.81
2022-11-13T21:26:12.722Z,97324.94
2022-11-13T21:28:41.129Z,97328.50
2022-11-13T21:31:15.528Z,97321.28
2022-11-13T21:33:44.658Z,97318.88
2022-11-13T21:36:14.412Z,97321.28
2022-11-13T21:38:43.279Z,97326.34
2022-11-13T21:41:25.083Z,97309.19
2022-11-13T21:43:57.039Z,97313.69
2022-11-13T21:46:28.184Z,97314.03
2022-11-13T21:48:57.938Z,97316.16
2022-11-13T21:51:26.329Z,97311.31
2022-11-13T21:53:54.396Z,97308.81
2022-11-13T21:56:22.983Z,97306.31
2022-11-13T21:58:51.481Z,97301.91
2022-11-13T22:01:19.780Z,97295.88
2022-11-13T22:03:49.783Z,97300.34
2022-11-13T22:06:20.858Z,97299.09
2022-11-13T22:08:56.057Z,97295.56
2022-11-13T22:11:24.779Z,97301.25
2022-11-13T22:13:53.111Z,97302.22
2022-11-13T22:16:21.779Z,97301.44
2022-11-13T22:18:54.960Z,97289.00
2022-11-13T22:21:23.703Z,97282.88
2022-11-13T22:23:52.041Z,97293.63
2022-11-13T22:26:20.725Z,97277.50
2022-11-13T22:28:50.358Z,97278.00
2022-11-13T22:31:21.376Z,97284.88
2022-11-13T22:33:54.700Z,97288.09
2022-11-13T22:36:24.648Z,97290.19
2022-11-13T22:38:53.266Z,97280.75
2022-11-13T22:41:23.509Z,97277.19
2022-11-13T22:43:54.221Z,97273.03
2022-11-13T22:46:30.177Z,97276.09
2022-11-13T22:49:01.899Z,97259.03
2022-11-13T22:51:31.767Z,97256.22
2022-11-13T22:54:01.079Z,97252.88
2022-11-13T22:56:32.127Z,97243.56
2022-11-13T22:59:01.832Z,97235.28
2022-11-13T23:01:31.206Z,97243.59
2022-11-13T23:04:02.422Z,97244.09
2022-11-13T23:06:31.876Z,97246.78
2022-11-13T23:09:00.399Z,97246.41
2022-11-13T23:11:30.379Z,97236.25
2022-11-13T23:14:02.182Z,97230.22
2022-11-13T23:16:31.823Z,97216.53
2022-11-13T23:19:02.673Z,97227.59
2022-11-13T23:21:30.888Z,97226.50
2022-11-13T23:23:59.399Z,97219.81
2022-11-13T23:26:28.494Z,97217.19
2022-11-13T23:28:57.281Z,97215.22
2022-11-13T23:31:25.687Z,97222.31
2022-11-13T23:33:53.909Z,97211.25
2022-11-13T23:36:24.029Z,97212.44
2022-11-13T23:38:52.292Z,97214.00
2022-11-13T23:41:20.453Z,97224.28
2022-11-13T23:46:37.223Z,97218.97
2022-11-13T23:49:05.419Z,97213.22
2022-11-13T23:51:35.081Z,97209.38
2022-11-13T23:54:03.353Z,97208.31
2022-11-13T23:56:31.598Z,97198.56
2022-11-13T23:58:59.889Z,97200.75
